Time;durP1;ratioP1;P1;durP2;ratioP2;P2;SDS_P1;SDS_P2;PMS_P1;PMS_P2;Temp;Humidity;BMP_temperature;BMP_pressure;BME280_temperature;BME280_humidity;BME280_pressure;Samples;Min_cycle;Max_cycle;Signal;HPM_P1;HPM_P2
2022/03/01 00:01:41;;;;;;;6.53;3.42;;;0.20;99.90;;;;;;4993279;28;20046;-74
2022/03/01 00:04:09;;;;;;;5.20;2.20;;;0.10;99.90;;;;;;4981336;28;20476;-74
2022/03/01 00:06:38;;;;;;;8.00;2.72;;;0.10;99.90;;;;;;4990246;28;20440;-75
2022/03/01 00:09:05;;;;;;;5.55;2.67;;;0.10;99.90;;;;;;5009419;28;20065;-76
2022/03/01 00:11:33;;;;;;;7.45;2.83;;;0.10;99.90;;;;;;4979349;28;20050;-75
2022/03/01 00:14:01;;;;;;;5.30;2.10;;;0.10;99.90;;;;;;4987239;28;20050;-76
2022/03/01 00:16:28;;;;;;;8.57;2.25;;;0.10;99.90;;;;;;4992596;28;20050;-75
2022/03/01 00:18:57;;;;;;;6.32;3.20;;;0.10;99.90;;;;;;5006670;28;20511;-76
2022/03/01 00:21:25;;;;;;;4.63;2.00;;;0.10;99.90;;;;;;4973969;28;20051;-76
2022/03/01 00:23:54;;;;;;;9.00;2.65;;;0.10;99.90;;;;;;4991371;28;20051;-75
2022/03/01 00:26:21;;;;;;;7.70;2.22;;;0.10;99.90;;;;;;4979384;28;20047;-76
2022/03/01 00:28:49;;;;;;;3.17;2.05;;;0.10;99.90;;;;;;4958744;28;20430;-75
2022/03/01 00:31:17;;;;;;;3.75;1.75;;;0.10;99.90;;;;;;4994394;28;20462;-75
2022/03/01 00:33:44;;;;;;;6.72;2.47;;;0.00;99.90;;;;;;4992426;28;20133;-74
2022/03/01 00:36:12;;;;;;;4.78;2.50;;;0.00;99.90;;;;;;4975256;28;20133;-74
2022/03/01 00:38:39;;;;;;;6.88;2.90;;;0.00;99.90;;;;;;5008621;28;20046;-74
2022/03/01 00:41:08;;;;;;;4.78;2.90;;;0.00;99.90;;;;;;4982142;28;20051;-73
2022/03/01 00:43:36;;;;;;;5.32;2.30;;;0.00;99.90;;;;;;4987019;28;20048;-73
2022/03/01 00:46:04;;;;;;;4.53;2.63;;;0.00;99.90;;;;;;4973602;28;20492;-74
2022/03/01 00:48:31;;;;;;;6.47;2.22;;;-0.10;99.90;;;;;;4986234;28;20104;-74
2022/03/01 00:50:59;;;;;;;3.45;2.30;;;-0.10;99.90;;;;;;4993328;28;20104;-73
2022/03/01 00:53:26;;;;;;;4.82;2.10;;;-0.10;99.90;;;;;;4976091;28;20145;-73
2022/03/01 00:55:53;;;;;;;4.28;1.85;;;-0.10;99.90;;;;;;4974245;28;20054;-73
2022/03/01 00:58:22;;;;;;;3.13;2.00;;;-0.10;99.90;;;;;;4988571;28;20149;-74
2022/03/01 01:00:49;;;;;;;5.80;1.83;;;-0.10;99.90;;;;;;4988838;28;20043;-74
2022/03/01 01:03:18;;;;;;;5.78;2.38;;;-0.10;99.90;;;;;;4991220;28;20131;-74
2022/03/01 01:05:45;;;;;;;5.78;2.00;;;0.00;99.90;;;;;;4992990;28;20042;-74
2022/03/01 01:08:12;;;;;;;3.90;1.83;;;-0.10;99.90;;;;;;4984182;28;20238;-74
2022/03/01 01:10:40;;;;;;;2.47;1.70;;;-0.10;99.90;;;;;;4980420;28;20047;-75
2022/03/01 01:13:07;;;;;;;6.13;2.05;;;-0.10;99.90;;;;;;4965892;28;20144;-75
2022/03/01 01:15:36;;;;;;;2.85;1.60;;;-0.10;99.90;;;;;;4973396;28;20050;-75
2022/03/01 01:18:03;;;;;;;6.38;2.05;;;-0.10;99.90;;;;;;5001750;28;20046;-75
2022/03/01 01:20:31;;;;;;;2.63;1.55;;;-0.10;99.90;;;;;;4985058;28;20514;-74
2022/03/01 01:22:58;;;;;;;3.55;2.03;;;-0.20;99.90;;;;;;4984869;28;20047;-74
2022/03/01 01:25:26;;;;;;;4.15;1.70;;;-0.20;99.90;;;;;;4992557;28;20288;-74
2022/03/01 01:27:58;;;;;;;2.30;1.58;;;-0.10;99.90;;;;;;4990196;28;20461;-73
2022/03/01 01:30:29;;;;;;;5.07;1.85;;;-0.10;99.90;;;;;;4973219;28;20046;-74
2022/03/01 01:32:57;;;;;;;3.88;1.70;;;-0.10;99.90;;;;;;4973331;28;20069;-74
2022/03/01 01:35:27;;;;;;;3.88;1.65;;;-0.10;99.90;;;;;;4972283;28;20053;-74
2022/03/01 01:37:56;;;;;;;3.40;2.38;;;-0.10;99.90;;;;;;5016348;28;20054;-74
2022/03/01 01:40:28;;;;;;;3.28;1.40;;;-0.10;99.90;;;;;;4972764;28;20043;-74
2022/03/01 01:42:57;;;;;;;2.17;1.25;;;-0.10;99.90;;;;;;4991225;28;20482;-74
2022/03/01 01:45:27;;;;;;;4.85;1.50;;;-0.10;99.90;;;;;;4991119;28;20061;-74
2022/03/01 01:47:58;;;;;;;2.63;1.30;;;-0.10;99.90;;;;;;4980306;28;20050;-74
2022/03/01 01:50:27;;;;;;;2.03;1.50;;;0.00;99.90;;;;;;4972183;28;20104;-75
2022/03/01 01:52:55;;;;;;;3.88;1.70;;;-0.10;99.90;;;;;;4976967;28;20128;-74
2022/03/01 01:55:25;;;;;;;3.90;1.35;;;0.00;99.90;;;;;;4987960;28;20063;-75
2022/03/01 01:57:53;;;;;;;4.78;1.50;;;-0.10;99.90;;;;;;4973008;28;20046;-75
2022/03/01 02:00:21;;;;;;;4.15;1.35;;;-0.10;99.90;;;;;;4984883;28;20566;-75
2022/03/01 02:02:48;;;;;;;5.05;1.75;;;-0.10;99.90;;;;;;4976987;28;20608;-75
2022/03/01 02:05:17;;;;;;;5.45;1.70;;;-0.10;99.90;;;;;;4986898;28;20065;-75
2022/03/01 02:07:48;;;;;;;2.45;1.50;;;-0.10;99.90;;;;;;4977999;28;20050;-75
2022/03/01 02:10:16;;;;;;;3.70;1.40;;;-0.10;99.90;;;;;;4982867;28;20039;-75
2022/03/01 02:12:44;;;;;;;5.47;1.60;;;-0.10;99.90;;;;;;4987938;28;20129;-76
2022/03/01 02:15:12;;;;;;;4.70;1.73;;;-0.20;99.90;;;;;;4971529;28;20128;-76
2022/03/01 02:17:41;;;;;;;4.85;1.80;;;-0.10;99.90;;;;;;4973248;28;20078;-76
2022/03/01 02:20:17;;;;;;;4.28;1.70;;;-0.10;99.90;;;;;;4972824;28;20405;-76
2022/03/01 02:22:45;;;;;;;5.13;1.67;;;-0.20;99.90;;;;;;4987475;28;20050;-76
2022/03/01 02:25:15;;;;;;;3.67;1.60;;;-0.20;99.90;;;;;;4996493;28;20049;-76
2022/03/01 02:27:42;;;;;;;2.80;1.30;;;-0.20;99.90;;;;;;4972898;28;20066;-74
2022/03/01 02:30:11;;;;;;;5.47;2.22;;;-0.20;99.90;;;;;;4978207;28;20148;-73
2022/03/01 02:32:40;;;;;;;5.30;2.22;;;-0.20;99.90;;;;;;4984843;28;20054;-73
2022/03/01 02:35:11;;;;;;;6.72;1.70;;;-0.20;99.90;;;;;;4971027;28;20047;-74
2022/03/01 02:37:39;;;;;;;4.07;1.70;;;-0.20;99.90;;;;;;4971946;28;20055;-74
2022/03/01 02:40:08;;;;;;;4.40;1.73;;;-0.10;99.90;;;;;;4987245;28;20558;-75
2022/03/01 02:42:36;;;;;;;4.00;1.70;;;-0.10;99.90;;;;;;4985875;28;20166;-73
2022/03/01 02:45:05;;;;;;;3.17;1.52;;;-0.20;99.90;;;;;;4970789;28;20084;-74
2022/03/01 02:47:32;;;;;;;4.28;1.58;;;-0.20;99.90;;;;;;4970930;28;20061;-74
2022/03/01 02:50:00;;;;;;;4.15;1.58;;;-0.10;99.90;;;;;;4972287;28;20051;-74
2022/03/01 02:52:29;;;;;;;4.03;1.80;;;-0.10;99.90;;;;;;5008500;28;20503;-73
2022/03/01 02:54:56;;;;;;;4.43;1.98;;;-0.10;99.90;;;;;;4985562;28;20035;-73
2022/03/01 02:57:24;;;;;;;5.70;1.65;;;-0.10;99.90;;;;;;4984429;28;20038;-73
2022/03/01 02:59:52;;;;;;;5.65;1.80;;;-0.10;99.90;;;;;;4985718;28;20426;-73
2022/03/01 03:02:19;;;;;;;7.80;1.67;;;-0.10;99.90;;;;;;4988390;28;20046;-73
2022/03/01 03:04:47;;;;;;;6.18;1.55;;;-0.10;99.90;;;;;;4988545;28;20050;-73
2022/03/01 03:07:15;;;;;;;4.25;2.15;;;-0.10;99.90;;;;;;4975270;28;20514;-73
2022/03/01 03:09:44;;;;;;;3.60;1.65;;;-0.10;99.90;;;;;;4979107;28;20058;-73
2022/03/01 03:12:11;;;;;;;7.20;2.15;;;-0.10;99.90;;;;;;4977458;28;20042;-73
2022/03/01 03:14:39;;;;;;;3.60;1.60;;;-0.10;99.90;;;;;;4980232;28;20059;-73
2022/03/01 03:17:07;;;;;;;4.47;1.30;;;-0.10;99.90;;;;;;4990967;28;20046;-73
2022/03/01 03:19:34;;;;;;;5.50;1.85;;;-0.10;99.90;;;;;;4979422;28;20466;-73
2022/03/01 03:22:03;;;;;;;3.83;1.38;;;-0.10;99.90;;;;;;4991544;28;20046;-73
2022/03/01 03:24:30;;;;;;;8.15;2.05;;;0.00;99.90;;;;;;4974610;28;20046;-73
2022/03/01 03:26:59;;;;;;;3.97;2.00;;;0.10;99.90;;;;;;4986350;28;20130;-73
2022/03/01 03:29:27;;;;;;;2.38;1.55;;;0.20;99.90;;;;;;4973418;28;20062;-73
2022/03/01 03:31:57;;;;;;;2.22;1.70;;;0.30;99.90;;;;;;4984585;28;20050;-74
2022/03/01 03:34:25;;;;;;;6.00;2.03;;;0.40;99.90;;;;;;4980194;28;20511;-74
2022/03/01 03:36:53;;;;;;;4.57;1.80;;;0.50;99.90;;;;;;4989347;28;20053;-74
2022/03/01 03:39:21;;;;;;;3.90;2.30;;;0.60;99.90;;;;;;4993823;28;20050;-74
2022/03/01 03:41:49;;;;;;;8.40;3.20;;;0.60;99.90;;;;;;4981537;28;20046;-74
2022/03/01 03:44:18;;;;;;;7.72;2.88;;;0.60;99.90;;;;;;4976458;28;20051;-74
2022/03/01 03:46:45;;;;;;;6.32;3.60;;;0.70;99.90;;;;;;4989815;28;20047;-74
2022/03/01 03:49:12;;;;;;;9.52;4.13;;;0.70;99.90;;;;;;4992432;28;20422;-74
2022/03/01 03:51:40;;;;;;;9.90;3.28;;;0.70;99.90;;;;;;4978712;28;20423;-74
2022/03/01 03:54:07;;;;;;;7.43;3.25;;;0.70;99.90;;;;;;4989145;28;20039;-74
2022/03/01 03:56:34;;;;;;;5.80;2.88;;;0.70;99.90;;;;;;5005218;28;20401;-75
2022/03/01 03:59:02;;;;;;;5.75;2.45;;;0.70;99.90;;;;;;4976061;28;20062;-75
2022/03/01 04:01:31;;;;;;;5.97;3.13;;;0.70;99.90;;;;;;4991187;28;20035;-75
2022/03/01 04:04:00;;;;;;;7.72;2.83;;;0.70;99.90;;;;;;4972973;28;20502;-75
2022/03/01 04:06:28;;;;;;;5.93;3.05;;;0.70;99.90;;;;;;4983002;28;20077;-74
2022/03/01 04:08:56;;;;;;;8.63;3.47;;;0.80;99.90;;;;;;4989683;28;20546;-75
2022/03/01 04:11:25;;;;;;;8.02;2.83;;;0.70;99.90;;;;;;4976618;28;20042;-74
2022/03/01 04:13:53;;;;;;;9.57;2.90;;;0.80;99.90;;;;;;4977931;28;20050;-74
2022/03/01 04:16:21;;;;;;;5.63;3.05;;;0.80;99.90;;;;;;5003739;28;20050;-77
2022/03/01 04:18:51;;;;;;;6.53;3.78;;;0.70;99.90;;;;;;4985980;28;20495;-77
2022/03/01 04:21:18;;;;;;;5.95;2.83;;;0.60;99.90;;;;;;4989941;28;20073;-78
2022/03/01 04:23:49;;;;;;;5.32;2.90;;;0.50;99.90;;;;;;4976468;28;20054;-77
2022/03/01 04:26:16;;;;;;;5.57;2.95;;;0.30;99.90;;;;;;4975244;28;20097;-77
2022/03/01 04:28:46;;;;;;;8.13;3.10;;;0.20;99.90;;;;;;4973630;28;20043;-76
2022/03/01 04:31:14;;;;;;;9.35;3.45;;;0.10;99.90;;;;;;4972511;28;20050;-76
2022/03/01 04:33:44;;;;;;;4.78;2.72;;;0.00;99.90;;;;;;4974665;28;20532;-76
2022/03/01 04:36:13;;;;;;;6.25;4.18;;;0.00;99.90;;;;;;4974487;28;20054;-74
2022/03/01 04:38:40;;;;;;;10.98;4.20;;;-0.10;99.90;;;;;;4986299;28;20077;-75
2022/03/01 04:41:11;;;;;;;12.90;4.53;;;-0.20;99.90;;;;;;4985866;28;20078;-73
2022/03/01 04:43:39;;;;;;;13.15;5.88;;;-0.30;99.90;;;;;;4978495;28;20058;-74
2022/03/01 04:46:07;;;;;;;26.42;8.55;;;-0.30;99.90;;;;;;4992156;28;20052;-74
2022/03/01 04:48:34;;;;;;;9.80;4.95;;;-0.40;99.90;;;;;;4987375;28;20050;-75
2022/03/01 04:51:06;;;;;;;23.83;8.45;;;-0.40;99.90;;;;;;4974397;28;20054;-74
2022/03/01 04:53:38;;;;;;;19.17;6.13;;;-0.40;99.90;;;;;;4993698;28;20109;-74
2022/03/01 04:56:13;;;;;;;19.42;5.50;;;-0.50;99.90;;;;;;4978912;28;20423;-73
2022/03/01 04:58:40;;;;;;;30.65;8.85;;;-0.50;99.90;;;;;;4973479;28;20051;-74
2022/03/01 05:01:08;;;;;;;33.85;9.82;;;-0.50;99.90;;;;;;4971603;28;20508;-75
2022/03/01 05:03:35;;;;;;;19.98;6.18;;;-0.50;99.90;;;;;;4998948;28;20054;-74
2022/03/01 05:06:03;;;;;;;19.88;5.78;;;-0.50;99.90;;;;;;4978964;28;20061;-75
2022/03/01 05:08:31;;;;;;;23.92;6.93;;;-0.50;99.90;;;;;;4972827;28;20098;-75
2022/03/01 05:11:01;;;;;;;16.02;5.55;;;-0.50;99.90;;;;;;4988765;28;20055;-75
2022/03/01 05:13:29;;;;;;;9.63;4.05;;;-0.50;99.90;;;;;;4988797;28;20042;-76
2022/03/01 05:16:45;;;;;;;10.27;4.50;;;-0.40;99.90;;;;;;4972339;28;20053;-77
2022/03/01 05:19:43;;;;;;;4.80;2.53;;;-0.40;99.90;;;;;;4963105;28;20086;-74
2022/03/01 05:22:10;;;;;;;8.82;3.58;;;-0.40;99.90;;;;;;4972352;28;20050;-75
2022/03/01 05:24:38;;;;;;;3.33;2.13;;;-0.40;99.90;;;;;;4974765;28;20047;-75
2022/03/01 05:27:07;;;;;;;9.10;2.90;;;-0.40;99.90;;;;;;4986456;28;20047;-74
2022/03/01 05:29:34;;;;;;;8.05;2.47;;;-0.40;99.90;;;;;;5002016;28;20487;-75
2022/03/01 05:32:01;;;;;;;7.32;2.63;;;-0.40;99.90;;;;;;4978644;28;20050;-75
2022/03/01 05:34:29;;;;;;;6.40;2.88;;;-0.30;99.90;;;;;;4972086;28;20158;-74
2022/03/01 05:36:56;;;;;;;7.25;3.05;;;-0.30;99.90;;;;;;4973710;28;20055;-75
2022/03/01 05:39:23;;;;;;;12.32;2.75;;;-0.30;99.90;;;;;;4988590;28;20140;-75
2022/03/01 05:41:51;;;;;;;6.32;2.55;;;-0.30;99.90;;;;;;4973392;28;20095;-75
2022/03/01 05:44:20;;;;;;;5.15;2.63;;;-0.30;99.90;;;;;;4955111;28;20047;-73
2022/03/01 05:46:48;;;;;;;8.45;2.58;;;-0.20;99.90;;;;;;4973350;28;20539;-73
2022/03/01 05:49:16;;;;;;;9.98;2.72;;;-0.20;99.90;;;;;;4971960;28;20403;-74
2022/03/01 05:51:43;;;;;;;11.55;3.03;;;-0.20;99.90;;;;;;4971178;28;20595;-73
2022/03/01 05:54:10;;;;;;;8.82;2.78;;;-0.10;99.90;;;;;;4975232;28;20042;-73
2022/03/01 05:56:38;;;;;;;6.32;3.10;;;-0.10;99.90;;;;;;4983691;28;20051;-73
2022/03/01 05:59:05;;;;;;;9.88;3.50;;;-0.10;99.90;;;;;;4971703;28;20129;-73
2022/03/01 06:01:38;;;;;;;5.38;3.35;;;-0.10;99.90;;;;;;4971833;28;20065;-73
2022/03/01 06:04:06;;;;;;;7.70;2.70;;;0.00;99.90;;;;;;4987975;28;20074;-73
2022/03/01 06:06:33;;;;;;;7.90;3.15;;;-0.10;99.90;;;;;;4991556;28;20149;-75
2022/03/01 06:09:00;;;;;;;12.40;4.25;;;0.00;99.90;;;;;;4977860;28;20051;-74
2022/03/01 06:11:28;;;;;;;15.73;6.75;;;0.00;99.90;;;;;;4971392;28;20062;-73
2022/03/01 06:13:58;;;;;;;11.50;5.65;;;0.00;99.90;;;;;;4984567;28;20054;-75
2022/03/01 06:16:25;;;;;;;10.80;4.95;;;0.10;99.90;;;;;;4972087;28;20046;-75
2022/03/01 06:18:54;;;;;;;22.48;6.05;;;0.10;99.90;;;;;;4970797;28;20057;-75
2022/03/01 06:21:21;;;;;;;12.18;6.50;;;0.20;99.90;;;;;;4972418;28;20050;-74
2022/03/01 06:23:49;;;;;;;55.70;19.63;;;0.20;99.90;;;;;;4976912;28;20046;-75
2022/03/01 06:26:17;;;;;;;54.55;16.80;;;0.20;99.90;;;;;;5004240;28;20038;-75
2022/03/01 06:28:44;;;;;;;49.92;17.33;;;0.20;99.90;;;;;;4960581;28;20047;-75
2022/03/01 06:31:12;;;;;;;32.88;13.00;;;0.30;99.90;;;;;;4976768;28;20053;-73
2022/03/01 06:33:40;;;;;;;24.75;10.90;;;0.30;99.90;;;;;;4982259;28;20509;-74
2022/03/01 06:36:09;;;;;;;20.23;9.20;;;0.30;99.90;;;;;;4977143;28;20055;-75
2022/03/01 06:38:36;;;;;;;19.17;7.57;;;0.40;99.90;;;;;;4979820;28;20057;-74
2022/03/01 06:41:04;;;;;;;15.82;5.80;;;0.50;99.90;;;;;;4980646;28;20039;-76
2022/03/01 06:43:32;;;;;;;12.63;5.20;;;0.50;99.90;;;;;;4979083;28;20102;-74
2022/03/01 06:45:59;;;;;;;12.95;5.10;;;0.50;99.90;;;;;;4955631;28;20054;-76
2022/03/01 06:48:27;;;;;;;12.07;4.60;;;0.60;99.90;;;;;;4953994;28;20051;-75
2022/03/01 06:50:54;;;;;;;9.55;4.38;;;0.60;99.90;;;;;;4991936;28;20055;-74
2022/03/01 06:53:23;;;;;;;13.88;5.22;;;0.70;99.90;;;;;;4953528;28;20073;-73
2022/03/01 06:55:51;;;;;;;15.32;4.15;;;0.70;99.90;;;;;;4971379;28;20047;-75
2022/03/01 06:58:18;;;;;;;10.55;4.95;;;0.80;99.90;;;;;;4986124;28;20070;-74
2022/03/01 07:00:46;;;;;;;12.32;3.83;;;0.80;99.90;;;;;;4970250;28;20589;-74
2022/03/01 07:03:13;;;;;;;7.35;3.85;;;0.80;99.90;;;;;;4985718;28;20055;-75
2022/03/01 07:05:41;;;;;;;12.57;4.03;;;0.90;99.90;;;;;;4995978;28;20054;-75
2022/03/01 07:08:09;;;;;;;9.75;4.95;;;0.90;99.90;;;;;;4989429;28;20061;-75
2022/03/01 07:10:38;;;;;;;9.38;4.28;;;1.00;99.90;;;;;;4990844;28;20069;-74
2022/03/01 07:13:06;;;;;;;8.93;2.70;;;1.00;99.90;;;;;;4975221;28;20042;-76
2022/03/01 07:15:35;;;;;;;6.75;2.65;;;1.10;99.90;;;;;;4985672;28;20506;-76
2022/03/01 07:18:03;;;;;;;6.88;2.97;;;1.10;99.90;;;;;;4971318;28;20081;-75
2022/03/01 07:20:31;;;;;;;6.47;3.30;;;1.20;99.90;;;;;;4971868;28;20054;-76
2022/03/01 07:22:58;;;;;;;4.90;3.00;;;1.20;99.90;;;;;;4986259;28;20066;-75
2022/03/01 07:25:26;;;;;;;8.40;2.80;;;1.30;99.90;;;;;;4986519;28;20078;-75
2022/03/01 07:27:55;;;;;;;9.38;2.53;;;1.40;99.90;;;;;;4972001;28;20086;-76
2022/03/01 07:30:25;;;;;;;7.65;2.40;;;1.50;99.90;;;;;;4971096;28;20061;-76
2022/03/01 07:32:53;;;;;;;3.85;2.25;;;1.70;99.90;;;;;;4971304;28;20065;-76
2022/03/01 07:35:22;;;;;;;10.32;2.75;;;2.30;99.90;;;;;;4969817;28;20047;-77
2022/03/01 07:37:59;;;;;;;9.70;2.80;;;3.30;99.90;;;;;;4988223;28;20054;-76
2022/03/01 07:40:28;;;;;;;5.80;2.58;;;4.50;99.90;;;;;;4978483;28;20054;-74
2022/03/01 07:42:57;;;;;;;8.95;3.05;;;5.80;99.90;;;;;;4971337;28;20101;-77
2022/03/01 07:45:25;;;;;;;11.30;2.90;;;6.80;99.90;;;;;;4970099;28;20050;-76
2022/03/01 07:47:53;;;;;;;7.53;2.95;;;7.60;99.90;;;;;;4970247;28;20093;-77
2022/03/01 07:50:22;;;;;;;7.78;2.65;;;8.10;99.90;;;;;;4986004;28;20114;-76
2022/03/01 07:52:49;;;;;;;9.55;2.97;;;8.20;99.90;;;;;;4971382;28;20055;-77
2022/03/01 07:55:16;;;;;;;8.50;2.40;;;8.20;99.90;;;;;;4970626;28;20423;-76
2022/03/01 07:57:44;;;;;;;7.20;3.15;;;8.00;99.90;;;;;;5006990;28;20082;-76
2022/03/01 08:00:15;;;;;;;8.50;2.80;;;7.80;99.90;;;;;;4981603;28;20046;-78
2022/03/01 08:02:43;;;;;;;7.28;2.60;;;7.80;99.90;;;;;;4975934;28;20500;-75
2022/03/01 08:05:13;;;;;;;9.27;2.80;;;8.00;99.90;;;;;;4969944;28;20055;-76
2022/03/01 08:07:40;;;;;;;10.23;2.70;;;8.70;99.90;;;;;;4971041;28;20057;-76
2022/03/01 08:10:09;;;;;;;9.48;2.80;;;9.20;95.30;;;;;;4971214;28;20069;-77
2022/03/01 08:12:38;;;;;;;20.50;4.25;;;9.20;96.20;;;;;;4969590;28;20117;-76
2022/03/01 08:15:07;;;;;;;9.38;2.78;;;9.70;93.70;;;;;;4971823;28;20047;-76
2022/03/01 08:17:36;;;;;;;8.65;2.60;;;10.60;90.00;;;;;;4974602;28;20098;-74
2022/03/01 08:20:07;;;;;;;8.70;2.80;;;11.50;82.10;;;;;;4973517;28;20051;-72
2022/03/01 08:22:34;;;;;;;8.60;3.42;;;12.20;76.70;;;;;;4972922;28;20053;-74
2022/03/01 08:25:01;;;;;;;10.02;3.05;;;12.90;72.50;;;;;;4975690;28;20078;-73
2022/03/01 08:27:30;;;;;;;7.28;3.30;;;13.70;68.20;;;;;;4998277;28;20055;-74
2022/03/01 08:29:58;;;;;;;9.40;4.10;;;14.10;65.80;;;;;;4973403;28;20400;-72
2022/03/01 08:32:25;;;;;;;12.85;5.30;;;14.70;63.10;;;;;;4972473;28;20096;-74
2022/03/01 08:34:54;;;;;;;13.98;5.07;;;15.10;61.70;;;;;;4974387;28;20042;-74
2022/03/01 08:37:22;;;;;;;13.07;4.65;;;15.50;59.80;;;;;;4981888;28;20050;-74
2022/03/01 08:39:49;;;;;;;12.98;4.78;;;15.40;56.70;;;;;;4975478;28;20054;-75
2022/03/01 08:42:18;;;;;;;14.88;4.65;;;15.50;57.80;;;;;;4965158;28;20055;-75
2022/03/01 08:44:46;;;;;;;18.08;3.90;;;15.80;56.00;;;;;;4973201;28;20042;-74
2022/03/01 08:47:13;;;;;;;13.75;4.65;;;15.90;56.20;;;;;;4976713;28;20109;-75
2022/03/01 08:49:40;;;;;;;17.08;4.32;;;16.50;53.90;;;;;;4988733;28;20047;-75
2022/03/01 08:52:09;;;;;;;10.82;3.97;;;16.50;53.60;;;;;;4973597;28;20051;-76
2022/03/01 08:54:37;;;;;;;14.27;4.10;;;16.60;53.40;;;;;;4972474;28;20061;-76
2022/03/01 08:57:05;;;;;;;25.55;5.38;;;17.00;53.40;;;;;;4972794;28;20077;-76
2022/03/01 08:59:33;;;;;;;18.15;4.40;;;17.40;50.60;;;;;;4972396;28;20059;-77
2022/03/01 09:02:00;;;;;;;11.43;4.30;;;17.10;51.30;;;;;;4972219;28;20053;-76
2022/03/01 09:04:28;;;;;;;23.75;6.68;;;17.30;50.70;;;;;;4950950;28;20050;-78
2022/03/01 09:06:55;;;;;;;16.90;5.80;;;17.40;50.00;;;;;;4973114;28;20535;-78
2022/03/01 09:09:24;;;;;;;19.27;6.20;;;17.10;49.60;;;;;;4991559;28;20062;-76
2022/03/01 09:11:51;;;;;;;11.10;4.80;;;16.90;49.90;;;;;;4983476;28;20049;-76
2022/03/01 09:14:19;;;;;;;13.63;3.97;;;17.00;49.70;;;;;;5003914;28;20073;-76
2022/03/01 09:16:46;;;;;;;8.38;3.45;;;17.30;48.40;;;;;;4991555;28;20054;-78
2022/03/01 09:19:14;;;;;;;11.18;3.25;;;17.30;48.40;;;;;;4981573;28;20181;-76
2022/03/01 09:21:42;;;;;;;13.73;3.38;;;17.60;48.40;;;;;;4982377;28;20404;-75
2022/03/01 09:24:09;;;;;;;15.80;3.65;;;17.70;49.10;;;;;;4977310;28;20062;-77
2022/03/01 09:26:38;;;;;;;15.68;3.55;;;17.90;47.50;;;;;;4996786;28;20048;-76
2022/03/01 09:29:06;;;;;;;11.45;3.05;;;18.30;47.10;;;;;;4976646;28;20162;-77
2022/03/01 09:31:36;;;;;;;8.05;3.00;;;18.70;46.30;;;;;;4982037;28;20039;-76
2022/03/01 09:34:04;;;;;;;10.05;3.08;;;19.40;45.40;;;;;;4982563;28;20104;-76
2022/03/01 09:36:31;;;;;;;11.13;3.70;;;19.60;45.00;;;;;;4980928;28;20047;-76
2022/03/01 09:38:59;;;;;;;15.02;4.68;;;19.80;44.90;;;;;;4999018;28;20564;-76
2022/03/01 09:41:27;;;;;;;19.05;4.75;;;20.00;44.10;;;;;;4978792;28;20046;-77
2022/03/01 09:44:01;;;;;;;14.15;5.78;;;20.10;43.30;;;;;;4996912;28;20052;-76
2022/03/01 09:46:29;;;;;;;11.80;5.10;;;20.00;43.30;;;;;;4980398;28;20142;-77
2022/03/01 09:48:56;;;;;;;16.92;5.60;;;20.20;42.20;;;;;;4981994;28;20046;-78
2022/03/01 09:51:27;;;;;;;16.50;4.57;;;19.60;43.20;;;;;;4980403;28;20562;-78
2022/03/01 09:53:55;;;;;;;19.58;5.25;;;19.00;43.20;;;;;;4996354;28;20074;-77
2022/03/01 09:56:23;;;;;;;15.13;6.47;;;18.40;44.40;;;;;;4992798;28;20039;-74
2022/03/01 09:58:52;;;;;;;17.13;5.93;;;17.80;45.10;;;;;;5009491;28;20125;-74
2022/03/01 10:01:20;;;;;;;15.10;5.68;;;16.90;46.40;;;;;;4980769;28;20087;-74
2022/03/01 10:03:49;;;;;;;10.23;4.80;;;16.20;46.50;;;;;;4982172;28;20492;-74
2022/03/01 10:06:22;;;;;;;9.52;5.38;;;15.30;48.40;;;;;;4977613;28;20536;-74
2022/03/01 10:08:54;;;;;;;17.52;5.32;;;14.60;48.90;;;;;;4978061;28;20141;-73
2022/03/01 10:11:23;;;;;;;16.13;5.57;;;13.30;50.60;;;;;;5003518;28;20038;-77
2022/03/01 10:13:58;;;;;;;17.23;6.97;;;13.10;52.80;;;;;;4959165;28;20048;-77
2022/03/01 10:16:39;;;;;;;17.38;7.70;;;13.90;52.20;;;;;;4980764;28;20491;-76
2022/03/01 10:19:15;;;;;;;17.23;6.68;;;15.10;50.40;;;;;;4980190;28;20039;-76
2022/03/01 10:21:43;;;;;;;14.90;5.75;;;16.20;48.20;;;;;;5005872;28;20085;-75
2022/03/01 10:24:13;;;;;;;14.80;6.38;;;16.70;47.30;;;;;;4976096;28;20101;-77
2022/03/01 10:26:44;;;;;;;9.88;3.85;;;17.30;46.50;;;;;;4983438;28;20128;-77
2022/03/01 10:29:12;;;;;;;12.18;4.22;;;17.70;44.80;;;;;;4976706;28;20132;-76
2022/03/01 10:31:42;;;;;;;7.75;3.38;;;17.40;45.80;;;;;;4993721;28;20050;-75
2022/03/01 10:34:13;;;;;;;6.65;3.35;;;16.90;46.00;;;;;;5002609;28;20101;-76
2022/03/01 10:36:47;;;;;;;9.80;3.42;;;17.10;45.60;;;;;;4985412;28;20137;-77
2022/03/01 10:39:19;;;;;;;9.50;3.40;;;16.80;46.30;;;;;;4977728;28;20438;-77
2022/03/01 10:41:48;;;;;;;5.72;3.05;;;17.10;46.00;;;;;;4972357;28;20412;-77
2022/03/01 10:44:18;;;;;;;8.02;3.20;;;17.20;45.80;;;;;;4972415;28;20053;-77
2022/03/01 10:46:50;;;;;;;7.95;3.25;;;17.30;45.70;;;;;;4971102;28;20434;-77
2022/03/01 10:49:23;;;;;;;6.90;3.60;;;17.10;45.20;;;;;;4970656;28;20078;-76
2022/03/01 10:51:52;;;;;;;9.02;3.58;;;16.60;46.30;;;;;;4988294;28;20077;-76
2022/03/01 10:54:28;;;;;;;13.15;4.65;;;16.40;46.90;;;;;;4980272;28;20065;-77
2022/03/01 10:56:56;;;;;;;9.25;3.75;;;15.90;47.20;;;;;;4997496;28;20120;-78
2022/03/01 10:59:25;;;;;;;16.38;5.28;;;15.70;48.20;;;;;;4963791;28;20474;-76
2022/03/01 11:01:56;;;;;;;18.40;6.32;;;15.80;48.20;;;;;;4999647;28;20047;-77
2022/03/01 11:04:27;;;;;;;16.83;5.57;;;15.70;48.20;;;;;;4979090;28;20039;-76
2022/03/01 11:06:56;;;;;;;21.77;6.07;;;16.30;48.40;;;;;;4978044;28;20101;-76
2022/03/01 11:09:28;;;;;;;19.17;5.05;;;17.00;47.00;;;;;;4989563;28;20051;-76
2022/03/01 11:11:57;;;;;;;13.57;6.32;;;17.70;46.10;;;;;;4971413;28;20144;-77
2022/03/01 11:14:28;;;;;;;14.95;7.05;;;18.40;45.10;;;;;;4971471;28;20054;-78
2022/03/01 11:17:09;;;;;;;21.40;7.00;;;19.20;44.80;;;;;;4971530;28;20070;-76
2022/03/01 11:19:54;;;;;;;14.80;6.88;;;19.40;43.60;;;;;;4990692;28;20128;-76
2022/03/01 11:22:30;;;;;;;16.15;5.65;;;18.70;43.60;;;;;;4992935;28;20586;-77
2022/03/01 11:24:58;;;;;;;17.58;6.47;;;17.80;44.50;;;;;;4974378;28;20109;-77
2022/03/01 11:27:27;;;;;;;18.00;7.20;;;17.20;46.00;;;;;;4981986;28;20125;-78
2022/03/01 11:30:09;;;;;;;10.55;5.97;;;17.80;46.20;;;;;;4988865;28;20089;-77
2022/03/01 11:32:45;;;;;;;12.65;5.72;;;18.80;44.90;;;;;;4978176;28;20050;-77
2022/03/01 11:35:22;;;;;;;16.25;4.78;;;19.20;43.70;;;;;;4976790;28;20117;-77
2022/03/01 11:38:02;;;;;;;16.83;6.38;;;19.30;42.80;;;;;;4980308;28;20061;-75
2022/03/01 11:40:34;;;;;;;21.02;4.82;;;19.60;42.70;;;;;;4989025;28;20054;-75
2022/03/01 11:43:10;;;;;;;14.60;5.75;;;19.50;42.70;;;;;;4970278;28;20058;-76
2022/03/01 11:45:39;;;;;;;21.80;6.72;;;19.40;42.80;;;;;;4971655;28;20462;-77
2022/03/01 11:48:15;;;;;;;23.13;6.78;;;19.60;42.80;;;;;;4989947;28;20049;-76
2022/03/01 11:50:48;;;;;;;20.27;5.47;;;19.80;42.30;;;;;;4974750;28;20062;-74
2022/03/01 11:53:18;;;;;;;16.23;5.28;;;20.00;41.70;;;;;;4974496;28;20070;-73
2022/03/01 11:55:50;;;;;;;13.50;4.18;;;20.20;42.40;;;;;;4994572;28;20059;-73
2022/03/01 11:58:20;;;;;;;12.93;5.37;;;20.60;40.80;;;;;;4993965;28;20173;-73
2022/03/01 12:00:49;;;;;;;18.70;5.55;;;20.70;40.90;;;;;;4980128;28;20101;-73
2022/03/01 12:03:21;;;;;;;12.88;4.85;;;20.20;41.10;;;;;;4974540;28;20096;-73
2022/03/01 12:05:50;;;;;;;14.90;5.32;;;19.70;41.90;;;;;;4974996;28;20050;-74
2022/03/01 12:08:19;;;;;;;8.50;4.68;;;19.60;42.20;;;;;;4974824;28;20051;-75
2022/03/01 12:10:55;;;;;;;11.00;5.20;;;20.40;41.50;;;;;;4973698;28;20114;-76
2022/03/01 12:13:33;;;;;;;12.15;5.18;;;20.90;40.20;;;;;;4974469;28;20109;-74
2022/03/01 12:16:01;;;;;;;11.65;5.40;;;20.80;41.20;;;;;;4957511;28;20527;-74
2022/03/01 12:18:33;;;;;;;17.75;6.43;;;20.40;40.50;;;;;;4974767;28;20081;-74
2022/03/01 12:21:06;;;;;;;19.77;5.53;;;19.70;41.40;;;;;;4973180;28;20050;-73
2022/03/01 12:23:37;;;;;;;16.10;5.57;;;19.10;41.60;;;;;;4981699;28;20056;-73
2022/03/01 12:26:06;;;;;;;7.68;3.97;;;19.10;42.00;;;;;;4998169;28;20058;-72
2022/03/01 12:28:39;;;;;;;11.50;3.45;;;19.40;41.50;;;;;;4987863;28;20157;-80
2022/03/01 12:31:09;;;;;;;10.95;3.95;;;19.30;41.50;;;;;;4982988;28;20158;-75
2022/03/01 12:33:49;;;;;;;10.40;3.75;;;19.40;41.40;;;;;;4974322;28;20129;-75
2022/03/01 12:36:34;;;;;;;9.00;3.75;;;19.90;40.60;;;;;;4974714;28;20066;-79
2022/03/01 12:39:07;;;;;;;14.10;4.20;;;20.10;41.20;;;;;;4974873;28;20142;-78
2022/03/01 12:41:36;;;;;;;8.77;4.00;;;20.10;40.20;;;;;;4985738;28;20089;-76
2022/03/01 12:44:08;;;;;;;11.57;4.28;;;20.00;40.90;;;;;;4981459;28;20114;-76
2022/03/01 12:46:37;;;;;;;7.70;3.92;;;20.00;40.60;;;;;;4981371;28;20047;-76
2022/03/01 12:49:09;;;;;;;9.25;3.88;;;19.30;40.80;;;;;;4976440;28;20101;-78
2022/03/01 12:51:38;;;;;;;12.57;4.25;;;18.80;42.00;;;;;;4977865;28;20097;-78
2022/03/01 12:54:10;;;;;;;8.15;3.33;;;18.60;42.50;;;;;;4999145;28;20043;-79
2022/03/01 12:56:40;;;;;;;10.52;3.20;;;18.60;42.00;;;;;;4987188;28;20054;-78